Kirsehir, Turkey

9:24 PM EEST on October 21, 2014 (GMT +0300)
Kapadokya | Change Station
CLOSE
Current Station
Airport
Location: NEVSEHIR,
Elevation: 3100 ft
Nearby Weather Stations

Elev 3100 ft 38.77 °N, 34.53 °E | Updated 34 minutes ago

Clear
Clear
45 °F
Feels Like 42 °F
N
5
Wind Variable Wind from ENE

Today
High -- | Low -- °F
--% Chance of Precip.
Yesterday
High -- | Low -- °F
Precip. -- in
6:58 AM 5:56 PM
Waning Crescent, 5% visible
Pressure 30.06 in
Visibility -9999.0 miles
Clouds
Windchill 42 °F
Dew Point 27 °F
Humidity 49%
Rainfall 0.00 in
Snow Depth Not available.
UV Not available.
Pollen Not available.
Air Quality Not available.
Flu Activity Not available.
METAR LTAZ 211750Z 06004KT 030V100 CAVOK 07/M03 Q1018 RMK RWY29 VRB01KT

More Conditions Fewer Conditions

Pressure 30.06 in
Visibility -9999.0 miles
Clouds
Windchill 42 °F
Dew Point 27 °F
Humidity 49%
Rainfall 0.00 in
Snow Depth Not available.
UV Not available.
Pollen Not available.
Air Quality Not available.
Flu Activity Not available.
METAR LTAZ 211750Z 06004KT 030V100 CAVOK 07/M03 Q1018 RMK RWY29 VRB01KT

More Conditions Fewer Conditions

10-Day Weather Forecast

Almanac

Astronomy

Oct. 21, 2014 Rise Set
Actual Time 6:58 AM EEST 5:56 PM EEST
Civil Twilight 6:31 AM EEST 6:23 PM EEST
Nautical Twilight 6:00 AM EEST 6:54 PM EEST
Astronomical Twilight 5:29 AM EEST 7:25 PM EEST
Moon 4:24 AM EEST 4:38 PM EEST
Length of Visible Light 11h 52m
Length of Day
10h 57m
Tomorrow will be 2m 24s shorter.
Waning Crescent, 5% of the Moon is Illuminated
Today
Waning Crescent
Oct 23
New
Oct 30
First Quarter
Nov 6
Full
Nov 14
Last Quarter

Today's Extremes

Country Highs Country Lows

Community

WunderPhotos

Upload Photos

1,763,738 photos uploaded!

Nearby

Snow Depth

Not available.

Earthquake Activity

City Distance Mag. Time & Date
No recent earthquake activity has been reported nearby.
Minimum magnitude displayed is 2.5.

Coastal Water Temperatures

Place Temperature
No Stations Reporting

Nearby Weather Stations